Terminal Aerodrome Forecast
Issued by NWS

Home | Current Version | Previous Version | Text Only | Print | Product List | Glossary On
Versions: 1 2 3 4 5 6 7 8 9 10 11 12 13 14 15 16 17 18 19 20 21 22 23 24 25 26 27 28 29 30
000
FTAK31 PAFA 281739
TAFAOR
TAF
PAOR 281739Z 2818/2918 11004KT P6SM -SHRA OVC060
     FM282200 05004KT P6SM -SHRA BKN050 BKN100
      TEMPO 2822/2902 30010G20KT 6SM -TSRA BKN050CB
     FM290500 31006KT P6SM BKN080=

USA.gov is the U.S. government's official web portal to all federal, state and local government web resources and services.